createdAt,value
2023-12-26T00:01:59.217Z,45.46
2023-12-26T00:07:21.119Z,45.64
2023-12-26T00:12:44.157Z,45.64
2023-12-26T00:18:06.307Z,45.80
2023-12-26T00:23:28.384Z,45.83
2023-12-26T00:28:50.568Z,45.57
2023-12-26T00:34:12.881Z,45.35
2023-12-26T00:39:35.865Z,45.57
2023-12-26T00:44:58.110Z,45.83
2023-12-26T00:50:20.143Z,45.60
2023-12-26T00:55:42.080Z,45.52
2023-12-26T01:01:04.172Z,45.64
2023-12-26T01:06:26.240Z,45.28
2023-12-26T01:11:48.471Z,45.68
2023-12-26T01:17:10.824Z,45.51
2023-12-26T01:22:32.824Z,45.71
2023-12-26T01:27:54.875Z,45.14
2023-12-26T01:33:17.080Z,45.21
2023-12-26T01:38:39.183Z,45.62
2023-12-26T01:44:01.322Z,45.48
2023-12-26T01:49:23.461Z,45.27
2023-12-26T01:54:45.546Z,45.72
2023-12-26T02:00:08.611Z,45.60
2023-12-26T02:05:31.192Z,45.60
2023-12-26T02:10:53.909Z,45.63
2023-12-26T02:16:22.966Z,45.66
2023-12-26T02:21:45.073Z,45.75
2023-12-26T02:27:07.446Z,45.28
2023-12-26T02:32:32.460Z,45.55
2023-12-26T02:37:55.220Z,45.68
2023-12-26T02:43:17.143Z,45.27
2023-12-26T02:48:39.213Z,45.46
2023-12-26T02:54:01.216Z,45.36
2023-12-26T02:59:23.318Z,45.64
2023-12-26T03:04:45.191Z,45.59
2023-12-26T03:10:10.552Z,45.50
2023-12-26T03:15:32.739Z,45.78
2023-12-26T03:20:54.724Z,45.68
2023-12-26T03:26:16.646Z,45.46
2023-12-26T03:31:46.677Z,45.28
2023-12-26T03:37:08.653Z,45.62
2023-12-26T03:42:30.574Z,45.33
2023-12-26T03:47:53.813Z,45.83
2023-12-26T03:53:16.544Z,45.55
2023-12-26T03:58:38.472Z,45.88
2023-12-26T04:04:00.748Z,45.64
2023-12-26T04:09:22.682Z,45.87
2023-12-26T04:14:44.637Z,45.66
2023-12-26T04:20:06.969Z,45.77
2023-12-26T04:25:28.829Z,45.74
2023-12-26T04:30:50.813Z,45.61
2023-12-26T04:36:12.840Z,45.92
2023-12-26T04:41:34.836Z,45.75
2023-12-26T04:46:56.897Z,45.91
2023-12-26T04:52:20.166Z,45.73
2023-12-26T04:57:42.069Z,45.67
2023-12-26T05:03:04.553Z,45.79
2023-12-26T05:08:26.921Z,45.51
2023-12-26T05:13:48.863Z,45.46
2023-12-26T05:19:10.989Z,45.54
2023-12-26T05:24:48.051Z,45.55
2023-12-26T05:30:13.796Z,46.07
2023-12-26T05:35:36.002Z,46.07
2023-12-26T05:40:57.987Z,45.88
2023-12-26T05:46:22.002Z,45.73
2023-12-26T05:51:44.658Z,45.97
2023-12-26T05:57:08.222Z,45.78
2023-12-26T06:02:30.426Z,45.74
2023-12-26T06:07:52.633Z,46.03
2023-12-26T06:13:14.593Z,46.54
2023-12-26T06:18:36.809Z,46.24
2023-12-26T06:23:59.057Z,45.56
2023-12-26T06:29:20.943Z,45.63
2023-12-26T06:34:42.915Z,45.39
2023-12-26T06:40:05.794Z,46.03
2023-12-26T06:45:28.255Z,45.69
2023-12-26T06:50:50.772Z,45.43
2023-12-26T06:56:12.747Z,45.04
2023-12-26T07:01:35.284Z,45.00
2023-12-26T07:06:57.270Z,44.89
2023-12-26T07:12:19.366Z,44.83
2023-12-26T07:17:41.617Z,44.74
2023-12-26T07:23:03.684Z,44.59
2023-12-26T07:28:25.752Z,44.91
2023-12-26T07:33:49.049Z,44.87
2023-12-26T07:39:14.632Z,44.46
2023-12-26T07:44:36.843Z,44.46
2023-12-26T07:49:59.133Z,44.74
2023-12-26T07:55:21.340Z,44.88
2023-12-26T08:00:43.508Z,45.07
2023-12-26T08:06:05.860Z,44.55
2023-12-26T08:11:28.057Z,44.61
2023-12-26T08:16:50.353Z,44.32
2023-12-26T08:22:12.582Z,44.20
2023-12-26T08:27:34.820Z,44.19
2023-12-26T08:32:57.285Z,44.32
2023-12-26T08:38:20.071Z,44.15
2023-12-26T08:43:42.037Z,43.50
2023-12-26T08:49:05.152Z,43.58
2023-12-26T08:54:27.576Z,43.40
2023-12-26T08:59:49.737Z,42.83
2023-12-26T09:05:13.023Z,43.02
2023-12-26T09:10:35.147Z,42.89
2023-12-26T09:16:02.712Z,42.05
2023-12-26T09:21:24.893Z,42.67
2023-12-26T09:26:47.080Z,42.90
2023-12-26T09:32:09.314Z,42.62
2023-12-26T09:37:36.518Z,42.96
2023-12-26T09:43:04.411Z,42.87
2023-12-26T09:48:26.683Z,43.54
2023-12-26T09:53:56.341Z,43.66
2023-12-26T09:59:20.751Z,43.91
2023-12-26T10:04:43.090Z,43.60
2023-12-26T10:10:06.993Z,44.39
2023-12-26T10:15:29.402Z,44.38
2023-12-26T10:20:51.509Z,44.50
2023-12-26T10:26:13.643Z,44.49
2023-12-26T10:31:35.944Z,45.00
2023-12-26T10:37:00.017Z,45.14
2023-12-26T10:42:22.403Z,45.11
2023-12-26T10:47:49.577Z,44.57
2023-12-26T10:53:17.739Z,44.93
2023-12-26T10:58:42.002Z,44.73
2023-12-26T11:05:00.313Z,44.73
2023-12-26T11:11:18.616Z,44.42
2023-12-26T11:17:17.866Z,44.43
2023-12-26T11:23:36.125Z,43.68
2023-12-26T11:29:35.473Z,43.17
2023-12-26T11:35:53.738Z,43.11
2023-12-26T11:42:11.754Z,43.26
2023-12-26T11:48:29.963Z,43.25
2023-12-26T11:54:29.583Z,43.05
2023-12-26T12:00:47.702Z,43.25
2023-12-26T12:07:06.271Z,43.39
2023-12-26T12:13:24.496Z,42.97
2023-12-26T12:19:24.204Z,43.01
2023-12-26T12:25:42.783Z,43.04
2023-12-26T12:32:01.422Z,43.06
2023-12-26T12:38:19.910Z,43.04
2023-12-26T12:44:38.241Z,43.12
2023-12-26T12:50:56.726Z,42.34
2023-12-26T12:57:15.032Z,41.48
2023-12-26T13:03:33.585Z,41.76
2023-12-26T13:09:52.212Z,41.83
2023-12-26T13:16:10.476Z,41.92
2023-12-26T13:22:09.666Z,42.60
2023-12-26T13:28:28.069Z,42.36
2023-12-26T13:34:46.450Z,42.86
2023-12-26T13:41:05.282Z,43.06
2023-12-26T13:47:23.815Z,43.28
2023-12-26T13:53:23.486Z,43.11
2023-12-26T13:59:23.560Z,43.08
2023-12-26T14:05:23.222Z,43.04
2023-12-26T14:11:23.769Z,43.06
2023-12-26T14:17:23.348Z,43.01
2023-12-26T14:23:22.736Z,43.49
2023-12-26T14:29:22.095Z,43.48
2023-12-26T14:35:21.331Z,43.78
2023-12-26T14:41:20.766Z,44.26
2023-12-26T14:47:19.977Z,44.14
2023-12-26T14:53:19.169Z,44.78
2023-12-26T14:59:18.611Z,44.87
2023-12-26T15:04:40.861Z,44.45
2023-12-26T15:10:03.075Z,44.72
2023-12-26T15:15:25.348Z,44.65
2023-12-26T15:20:47.540Z,44.81
2023-12-26T15:26:18.302Z,44.62
2023-12-26T15:31:40.511Z,45.01
2023-12-26T15:37:02.685Z,45.01
2023-12-26T15:42:24.870Z,45.05
2023-12-26T15:47:47.067Z,45.33
2023-12-26T15:53:09.249Z,45.84
2023-12-26T15:58:31.432Z,45.77
2023-12-26T16:03:57.887Z,45.85
2023-12-26T16:09:20.342Z,45.82
2023-12-26T16:14:42.451Z,45.75
2023-12-26T16:20:04.846Z,45.72
2023-12-26T16:25:27.167Z,45.94
2023-12-26T16:30:49.400Z,45.63
2023-12-26T16:36:12.221Z,46.17
2023-12-26T16:41:34.425Z,45.88
2023-12-26T16:46:58.442Z,45.64
2023-12-26T16:52:20.916Z,45.50
2023-12-26T16:57:42.802Z,45.42
2023-12-26T17:03:05.082Z,46.17
2023-12-26T17:08:28.444Z,46.26
2023-12-26T17:13:50.506Z,46.63
2023-12-26T17:19:12.802Z,46.87
2023-12-26T17:24:34.757Z,47.14
2023-12-26T17:29:56.779Z,47.58
2023-12-26T17:35:19.055Z,47.36
2023-12-26T17:40:41.299Z,48.16
2023-12-26T17:46:04.444Z,48.06
2023-12-26T17:51:26.732Z,47.91
2023-12-26T17:56:48.975Z,47.52
2023-12-26T18:02:13.628Z,47.85
2023-12-26T18:07:37.789Z,47.69
2023-12-26T18:12:59.895Z,47.64
2023-12-26T18:18:22.395Z,47.98
2023-12-26T18:23:44.596Z,47.86
2023-12-26T18:29:06.737Z,48.03
2023-12-26T18:34:29.209Z,47.91
2023-12-26T18:39:51.521Z,47.54
2023-12-26T18:45:14.047Z,48.11
2023-12-26T18:50:36.133Z,48.37
2023-12-26T18:55:58.774Z,48.14
2023-12-26T19:01:21.092Z,48.53
2023-12-26T19:06:45.036Z,47.77
2023-12-26T19:12:09.255Z,47.61
2023-12-26T19:17:31.568Z,47.93
2023-12-26T19:22:55.060Z,48.26
2023-12-26T19:28:19.327Z,47.65
2023-12-26T19:33:42.009Z,48.32
2023-12-26T19:39:05.573Z,48.19
2023-12-26T19:44:29.026Z,48.18
2023-12-26T19:49:51.631Z,48.28
2023-12-26T19:55:13.916Z,48.47
2023-12-26T20:00:36.134Z,48.61
2023-12-26T20:06:00.628Z,49.04
2023-12-26T20:11:22.920Z,48.85
2023-12-26T20:16:46.804Z,48.94
2023-12-26T20:22:08.854Z,49.22
2023-12-26T20:27:30.957Z,49.22
2023-12-26T20:32:54.063Z,49.11
2023-12-26T20:38:16.351Z,49.41
2023-12-26T20:43:38.616Z,49.22
2023-12-26T20:49:01.365Z,49.51
2023-12-26T20:54:24.290Z,49.22
2023-12-26T20:59:46.471Z,49.05
2023-12-26T21:05:09.392Z,49.05
2023-12-26T21:10:31.534Z,49.03
2023-12-26T21:15:54.088Z,48.93
2023-12-26T21:21:16.330Z,48.79
2023-12-26T21:26:38.494Z,48.69
2023-12-26T21:32:01.043Z,49.08
2023-12-26T21:37:23.282Z,48.80
2023-12-26T21:42:45.424Z,49.00
2023-12-26T21:48:07.766Z,49.34
2023-12-26T21:53:29.930Z,49.38
2023-12-26T21:58:51.889Z,49.68
2023-12-26T22:04:15.550Z,49.58
2023-12-26T22:09:37.970Z,49.65
2023-12-26T22:15:09.233Z,50.03
2023-12-26T22:20:39.298Z,49.94
2023-12-26T22:26:02.345Z,49.91
2023-12-26T22:31:24.582Z,50.14
2023-12-26T22:36:46.746Z,50.22
2023-12-26T22:42:08.891Z,50.04
2023-12-26T22:47:31.062Z,50.36
2023-12-26T22:52:53.621Z,50.22
2023-12-26T22:58:16.203Z,49.88
2023-12-26T23:03:39.459Z,50.28
2023-12-26T23:09:02.260Z,50.04
2023-12-26T23:14:24.451Z,50.20
2023-12-26T23:19:49.332Z,50.42
2023-12-26T23:25:14.717Z,50.34
2023-12-26T23:30:36.811Z,50.69
2023-12-26T23:35:59.092Z,50.92
2023-12-26T23:41:21.197Z,50.61
2023-12-26T23:46:46.172Z,50.83
2023-12-26T23:52:08.559Z,50.50
2023-12-26T23:57:30.718Z,50.96
